Meteorología y climatología de Navarra
Datos de la estación - Meteo Navarra

Estación de Carcastillo (La Oliva) GN

Altitud 343 m.


Datos desde el 12/09/2019 hasta el 13/09/2019 en horario solar
Los datos son PROVISIONALES

Anterior Página 1 de 1 Siguiente Descargar: Formato para Excel 2000 o superior   Formato csv   Formato para OpenOffice Calc
Fecha Temperatura Humedad relativa Radiación global Insolación Precipitación Vel. viento 10 m Vel. viento 10 m Dir. viento 10 m
ºC % W/m² s l/m² m/s km/h º
12/09/2019 0:00 13.7 75 0.0 0 0.0 2.5 8.9 274
12/09/2019 0:10 13.4 75 0.0 0 0.0 2.5 9.0 274
12/09/2019 0:20 13.3 76 0.0 0 0.0 1.9 6.9 272
12/09/2019 0:30 13.3 76 0.0 0 0.0 1.4 5.0 255
12/09/2019 0:40 13.1 76 0.0 0 0.0 1.1 3.9 250
12/09/2019 0:50 12.9 77 0.0 0 0.0 1.5 5.5 260
12/09/2019 1:00 12.8 78 0.0 0 0.0 2.4 8.7 277
12/09/2019 1:10 12.8 79 0.0 0 0.0 2.1 7.5 274
12/09/2019 1:20 12.6 79 0.0 0 0.0 2.2 8.1 266
12/09/2019 1:30 12.7 79 0.0 0 0.0 2.7 9.7 267
12/09/2019 1:40 12.8 78 0.0 0 0.0 2.7 9.6 271
12/09/2019 1:50 12.8 78 0.0 0 0.0 2.9 10.6 272
12/09/2019 2:00 12.8 78 0.0 0 0.0 2.8 10.0 271
12/09/2019 2:10 12.7 78 0.0 0 0.0 3.0 10.7 276
12/09/2019 2:20 12.5 78 0.0 0 0.0 2.3 8.4 272
12/09/2019 2:30 12.5 78 0.0 0 0.0 2.8 10.2 259
12/09/2019 2:40 12.4 79 0.0 0 0.0 2.6 9.4 260
12/09/2019 2:50 12.4 79 0.0 0 0.0 2.4 8.8 267
12/09/2019 3:00 12.4 79 0.0 0 0.0 2.9 10.5 258
12/09/2019 3:10 12.3 79 0.0 0 0.0 2.5 8.9 244
12/09/2019 3:20 12.2 79 0.0 0 0.0 2.5 9.0 245
12/09/2019 3:30 12.0 80 0.0 0 0.0 2.7 9.7 251
12/09/2019 3:40 11.9 81 0.0 0 0.0 2.4 8.5 254
12/09/2019 3:50 11.6 81 0.0 0 0.0 2.2 7.7 251
12/09/2019 4:00 11.6 82 0.0 0 0.0 2.2 7.8 262
12/09/2019 4:10 11.6 83 0.0 0 0.0 1.8 6.6 275
12/09/2019 4:20 11.4 84 0.0 0 0.0 1.3 4.5 256
12/09/2019 4:30 11.2 84 0.0 0 0.0 1.1 4.1 260
12/09/2019 4:40 11.0 85 0.0 0 0.0 1.1 3.8 283
12/09/2019 4:50 10.8 87 0.0 0 0.0 0.1 0.4 40
12/09/2019 5:00 10.5 87 0.0 0 0.0 0.0 0.1 271
12/09/2019 5:10 10.3 87 0.0 0 0.0 0.2 0.7 260
12/09/2019 5:20 10.1 87 0.0 0 0.0 0.8 2.7 241
12/09/2019 5:30 10.0 87 0.0 0 0.0 1.0 3.4 243
12/09/2019 5:40 10.0 88 0.0 0 0.0 1.0 3.5 240
12/09/2019 5:50 10.1 87 0.0 0 0.0 1.2 4.3 270
12/09/2019 6:00 10.0 88 0.8 0 0.0 0.5 1.9 262
12/09/2019 6:10 10.1 88 31.8 354 0.0 1.4 5.0 247
12/09/2019 6:20 10.2 88 54.5 600 0.0 1.7 6.1 257
12/09/2019 6:30 10.5 87 80.3 600 0.0 1.1 3.9 287
12/09/2019 6:40 10.8 87 108.1 600 0.0 1.5 5.5 273
12/09/2019 6:50 11.2 86 137.3 600 0.0 1.2 4.1 276
12/09/2019 7:00 11.7 85 168.2 600 0.0 1.9 6.9 276
12/09/2019 7:10 12.2 84 199.6 600 0.0 1.9 6.9 271
12/09/2019 7:20 12.6 81 230.3 600 0.0 1.5 5.3 268
12/09/2019 7:30 13.3 79 260.7 600 0.0 1.4 5.0 265
12/09/2019 7:40 13.9 75 291.5 600 0.0 1.5 5.5 276
12/09/2019 7:50 14.6 71 322.4 600 0.0 1.8 6.5 276
12/09/2019 8:00 15.3 68 352.9 600 0.0 2.2 7.8 277
12/09/2019 8:10 15.9 67 384.2 600 0.0 2.5 8.8 267
12/09/2019 8:20 16.3 65 416.3 600 0.0 3.2 11.4 274
12/09/2019 8:30 16.9 63 448.0 600 0.0 3.0 10.8 276
12/09/2019 8:40 17.4 62 477.0 600 0.0 2.1 7.7 276
12/09/2019 8:50 18.0 60 505.4 600 0.0 2.3 8.4 283
12/09/2019 9:00 18.3 60 532.2 600 0.0 2.6 9.3 269
12/09/2019 9:10 19.0 58 561.2 600 0.0 2.2 7.9 278
12/09/2019 9:20 19.5 57 586.5 600 0.0 2.6 9.4 276
12/09/2019 9:30 19.9 55 611.3 600 0.0 2.6 9.2 284
12/09/2019 9:40 20.2 52 636.2 600 0.0 2.7 9.7 275
12/09/2019 9:50 20.7 52 658.1 600 0.0 2.7 9.7 281
12/09/2019 10:00 21.1 51 680.8 600 0.0 2.9 10.4 284
12/09/2019 10:10 21.5 50 700.1 600 0.0 2.8 10.1 276
12/09/2019 10:20 21.9 49 718.4 600 0.0 2.5 8.8 289
12/09/2019 10:30 22.2 48 735.8 600 0.0 2.5 9.1 280
12/09/2019 10:40 22.9 46 750.4 600 0.0 2.0 7.3 285
12/09/2019 10:50 23.1 45 745.4 600 0.0 2.7 9.5 265
12/09/2019 11:00 23.6 44 772.2 600 0.0 2.0 7.2 302
12/09/2019 11:10 23.9 43 782.9 600 0.0 2.4 8.7 281
12/09/2019 11:20 24.2 43 780.2 600 0.0 2.1 7.7 277
12/09/2019 11:30 24.6 42 797.4 600 0.0 2.1 7.7 274
12/09/2019 11:40 25.1 42 796.4 600 0.0 2.9 10.5 265
12/09/2019 11:50 25.3 41 813.0 600 0.0 2.6 9.4 278
12/09/2019 12:00 25.5 40 817.0 600 0.0 2.5 9.1 286
12/09/2019 12:10 25.7 40 816.0 600 0.0 2.3 8.3 287
12/09/2019 12:20 26.2 39 814.0 600 0.0 2.6 9.3 281
12/09/2019 12:30 26.4 38 811.0 600 0.0 2.5 8.9 282
12/09/2019 12:40 26.9 38 806.0 600 0.0 2.4 8.6 276
12/09/2019 12:50 27.3 37 800.0 600 0.0 2.1 7.6 280
12/09/2019 13:00 27.4 36 791.9 600 0.0 1.9 6.9 271
12/09/2019 13:10 27.6 35 782.1 600 0.0 2.3 8.1 268
12/09/2019 13:20 27.7 34 770.9 600 0.0 2.0 7.3 280
12/09/2019 13:30 27.8 33 758.8 600 0.0 1.5 5.3 262
12/09/2019 13:40 28.0 33 744.0 600 0.0 1.2 4.4 302
12/09/2019 13:50 28.0 33 728.0 600 0.0 2.4 8.7 296
12/09/2019 14:00 28.2 33 709.6 600 0.0 1.7 6.2 277
12/09/2019 14:10 28.8 32 690.8 600 0.0 1.7 6.3 278
12/09/2019 14:20 28.7 33 669.1 600 0.0 2.3 8.2 289
12/09/2019 14:30 28.7 32 650.1 600 0.0 2.2 8.1 272
12/09/2019 14:40 28.8 32 626.4 600 0.0 2.2 8.1 248
12/09/2019 14:50 29.1 32 600.6 600 0.0 1.9 6.9 278
12/09/2019 15:00 29.1 32 574.6 600 0.0 2.4 8.5 293
12/09/2019 15:10 28.9 31 547.2 600 0.0 2.1 7.4 291
12/09/2019 15:20 28.9 32 517.7 600 0.0 2.4 8.8 307
12/09/2019 15:30 29.0 31 487.9 600 0.0 2.8 10.2 287
12/09/2019 15:40 29.0 31 457.3 600 0.0 2.1 7.5 283
12/09/2019 15:50 29.1 31 426.3 600 0.0 2.5 9.0 284
12/09/2019 16:00 29.0 33 395.8 600 0.0 3.0 10.9 281
12/09/2019 16:10 28.6 33 364.9 600 0.0 3.0 10.7 280
12/09/2019 16:20 28.6 33 334.2 600 0.0 2.5 9.0 281
12/09/2019 16:30 28.7 33 303.9 600 0.0 2.2 8.0 273
12/09/2019 16:40 28.8 32 271.5 600 0.0 2.0 7.2 263
12/09/2019 16:50 28.8 32 239.3 600 0.0 2.5 8.8 260
12/09/2019 17:00 28.6 32 205.8 600 0.0 2.4 8.8 261
12/09/2019 17:10 28.5 32 173.3 600 0.0 2.4 8.6 254
12/09/2019 17:20 28.3 33 141.5 600 0.0 2.2 8.0 274
12/09/2019 17:30 27.9 36 111.9 600 0.0 1.8 6.3 275
12/09/2019 17:40 27.5 37 84.4 600 0.0 1.6 5.7 275
12/09/2019 17:50 27.3 38 59.3 600 0.0 0.9 3.3 277
12/09/2019 18:00 27.0 39 38.0 536 0.0 0.1 0.2 283
12/09/2019 18:10 26.5 43 14.5 0 0.0 0.0 0.1 278
12/09/2019 18:20 25.8 43 0.0 0 0.0 1.0 3.7 268
12/09/2019 18:30 24.6 49 0.0 0 0.0 0.8 2.8 355
12/09/2019 18:40 23.7 51 0.0 0 0.0 1.0 3.6 114
12/09/2019 18:50 23.3 51 0.0 0 0.0 0.7 2.4 114
12/09/2019 19:00 22.8 50 0.0 0 0.0 0.8 2.8 94
12/09/2019 19:10 22.5 51 0.0 0 0.0 1.2 4.4 109
12/09/2019 19:20 22.2 51 0.0 0 0.0 1.6 5.8 113
12/09/2019 19:30 22.3 49 0.0 0 0.0 1.9 6.9 103
12/09/2019 19:40 22.0 51 0.0 0 0.0 2.6 9.5 82
12/09/2019 19:50 21.5 53 0.0 0 0.0 2.3 8.3 84
12/09/2019 20:00 21.1 54 0.0 0 0.0 1.4 5.2 78
12/09/2019 20:10 20.8 55 0.0 0 0.0 0.5 1.6 63
12/09/2019 20:20 20.3 58 0.0 0 0.0 0.2 0.6 119
12/09/2019 20:30 19.8 58 0.0 0 0.0 0.2 0.6 117
12/09/2019 20:40 19.4 61 0.0 0 0.0 0.0 0.0 0
12/09/2019 20:50 19.0 64 0.0 0 0.0 0.5 1.7 99
12/09/2019 21:00 18.5 64 0.0 0 0.0 0.3 0.9 295
12/09/2019 21:10 18.0 68 0.0 0 0.0 0.5 1.6 273
12/09/2019 21:20 17.8 69 0.0 0 0.0 0.0 0.0 286
12/09/2019 21:30 17.4 73 0.0 0 0.0 0.2 0.9 308
12/09/2019 21:40 17.1 74 0.0 0 0.0 0.1 0.3 327
12/09/2019 21:50 16.6 76 0.0 0 0.0 0.3 1.2 254
12/09/2019 22:00 16.2 79 0.0 0 0.0 0.0 0.0 0
12/09/2019 22:10 16.0 79 0.0 0 0.0 0.1 0.5 124
12/09/2019 22:20 15.7 77 0.0 0 0.0 0.0 0.0 0
12/09/2019 22:30 15.5 78 0.0 0 0.0 0.0 0.1 141
12/09/2019 22:40 15.4 78 0.0 0 0.0 0.3 1.0 69
12/09/2019 22:50 15.0 81 0.0 0 0.0 0.6 2.0 351
12/09/2019 23:00 15.1 81 0.0 0 0.0 0.7 2.4 276
12/09/2019 23:10 15.0 82 0.0 0 0.0 0.6 2.0 299
12/09/2019 23:20 14.9 83 0.0 0 0.0 0.1 0.5 355
12/09/2019 23:30 14.6 84 0.0 0 0.0 0.4 1.3 324
12/09/2019 23:40 14.5 83 0.0 0 0.0 0.0 0.1 267
12/09/2019 23:50 14.3 82 0.0 0 0.0 0.0 0.0 0
Anterior Página 1 de 1 Siguiente

NOTA: Tipo de datos según el color:
   - Valores diarios o 10 minutos correctos
   - Valores diarios calculados a partir de un número de datos 10 minutos menor que 144 y mayor que 120, o de un número de datos semihorarios menor que 48 y mayor que 40 (caso de las estaciones de Riegos de Navarra y del MARM)
   - Valores diez minutos estimados


Contacto        Enlaces        Aviso legal